Unbenanntes Dokument
Flugplatz Bielefeld Platzwetter

 

Aktuelles Platzwetter am Flugplatz Bielefeld EDLI

24.09.18 ,11:17 Uhr

METAR EDLI 241116Z 29017KT 9999 ///037 13/03 Q1031

 

Windwerte

 

Wolkenuntergrenzen

Wind aktuell:280 ° mit 15 kt
Wind 10 min Extrem:
260 ° bis 320 ° mit 7 kt bis 24 kt
Seitenwindkomponente: 0.0 kt
Wolkengrenze 1: 4900 ft
Wolkengrenze 2:
Wolkengrenze 3:

Webcam

Temperatur

       

Sichtweite:

20.000 Meter

13.6 °C
Taupunkt: 4.6 °C
Luftfeuchtigkeit: 54 %

Luftdruck:

QNH: 1031 hPa (30.45 in Hg)
QFE: 1015 hPa (29.97 in Hg)

Diese Daten werden automatisch ermittelt bzw. übertragen und sind nicht geprüft. Für die Richtigkeit wird daher keine Gewähr übernommen. Sie ersetzen im übrigen nicht die Flugwetterberatung. Alle Zeitangaben beziehen sich auf UTC. Die Seite wird einmal die Minute aktualisiert! Sollten Sie ein ältere Seite haben, so drücken Sie bitte auf den Reload Button Ihres Browsers!